createdAt,value
2024-03-05T00:00:47.248Z,29.57
2024-03-05T00:01:47.248Z,29.57
2024-03-05T00:02:47.286Z,29.56
2024-03-05T00:03:47.354Z,29.63
2024-03-05T00:04:47.467Z,29.56
2024-03-05T00:05:47.477Z,29.50
2024-03-05T00:06:47.574Z,29.52
2024-03-05T00:07:47.628Z,29.53
2024-03-05T00:08:47.662Z,29.62
2024-03-05T00:09:47.725Z,29.53
2024-03-05T00:10:47.922Z,29.51
2024-03-05T00:11:47.965Z,29.53
2024-03-05T00:12:47.960Z,29.52
2024-03-05T00:13:48.034Z,29.43
2024-03-05T00:14:48.162Z,29.46
2024-03-05T00:15:48.135Z,29.45
2024-03-05T00:16:48.227Z,29.42
2024-03-05T00:17:48.298Z,29.33
2024-03-05T00:18:48.312Z,29.37
2024-03-05T00:19:48.462Z,29.38
2024-03-05T00:20:48.485Z,29.36
2024-03-05T00:21:48.564Z,29.30
2024-03-05T00:22:48.697Z,29.34
2024-03-05T00:23:48.669Z,29.31
2024-03-05T00:24:48.729Z,29.27
2024-03-05T00:25:48.863Z,29.22
2024-03-05T00:26:48.899Z,29.38
2024-03-05T00:27:48.940Z,29.33
2024-03-05T00:28:49.022Z,29.34
2024-03-05T00:29:49.052Z,29.20
2024-03-05T00:30:49.142Z,29.19
2024-03-05T00:31:49.644Z,29.18
2024-03-05T00:32:49.307Z,29.11
2024-03-05T00:33:49.297Z,29.03
2024-03-05T00:34:49.477Z,29.09
2024-03-05T00:35:49.455Z,29.02
2024-03-05T00:36:49.519Z,29.05
2024-03-05T00:37:49.615Z,29.06
2024-03-05T00:38:49.631Z,29.08
2024-03-05T00:39:49.709Z,29.02
2024-03-05T00:40:49.846Z,29.03
2024-03-05T00:41:49.835Z,28.99
2024-03-05T00:42:49.924Z,29.00
2024-03-05T00:43:50.024Z,29.04
2024-03-05T00:44:50.022Z,29.07
2024-03-05T00:45:50.150Z,29.19
2024-03-05T00:46:50.494Z,29.03
2024-03-05T00:47:50.297Z,28.99
2024-03-05T00:48:50.281Z,28.98
2024-03-05T00:49:50.384Z,28.99
2024-03-05T00:50:50.461Z,29.19
2024-03-05T00:51:50.540Z,29.01
2024-03-05T00:52:50.604Z,29.06
2024-03-05T00:53:50.668Z,29.11
2024-03-05T00:54:50.734Z,29.12
2024-03-05T00:55:50.872Z,29.02
2024-03-05T00:56:50.913Z,29.00
2024-03-05T00:57:50.970Z,29.17
2024-03-05T00:58:51.084Z,29.04
2024-03-05T00:59:51.074Z,28.96
2024-03-05T01:00:51.153Z,28.92
2024-03-05T01:01:51.275Z,28.90
2024-03-05T01:02:51.305Z,28.99
2024-03-05T01:03:51.384Z,28.97
2024-03-05T01:04:51.656Z,28.93
2024-03-05T01:05:51.598Z,28.97
2024-03-05T01:06:51.597Z,29.02
2024-03-05T01:07:51.729Z,29.02
2024-03-05T01:08:51.711Z,29.04
2024-03-05T01:09:51.757Z,29.06
2024-03-05T01:10:51.888Z,29.10
2024-03-05T01:11:51.928Z,29.10
2024-03-05T01:12:51.993Z,29.13
2024-03-05T01:13:52.151Z,29.12
2024-03-05T01:14:52.124Z,29.13
2024-03-05T01:15:52.182Z,29.13
2024-03-05T01:16:52.297Z,29.10
2024-03-05T01:17:52.378Z,29.22
2024-03-05T01:18:52.458Z,29.19
2024-03-05T01:19:52.498Z,29.22
2024-03-05T01:20:52.554Z,29.28
2024-03-05T01:21:52.596Z,29.48
2024-03-05T01:22:52.756Z,29.31
2024-03-05T01:23:52.728Z,29.42
2024-03-05T01:24:52.797Z,29.41
2024-03-05T01:25:52.994Z,29.48
2024-03-05T01:26:52.926Z,29.49
2024-03-05T01:27:53.009Z,29.54
2024-03-05T01:28:53.132Z,29.81
2024-03-05T01:29:53.190Z,29.62
2024-03-05T01:30:53.214Z,29.70
2024-03-05T01:31:53.388Z,29.71
2024-03-05T01:32:53.383Z,29.68
2024-03-05T01:33:53.437Z,29.75
2024-03-05T01:34:53.541Z,29.73
2024-03-05T01:35:53.596Z,29.72
2024-03-05T01:36:53.603Z,29.73
2024-03-05T01:37:53.714Z,29.72
2024-03-05T01:38:53.762Z,29.82
2024-03-05T01:39:53.850Z,29.85
2024-03-05T01:40:53.992Z,29.89
2024-03-05T01:41:53.983Z,29.90
2024-03-05T01:42:54.048Z,29.87
2024-03-05T01:43:54.118Z,29.84
2024-03-05T01:44:54.192Z,29.95
2024-03-05T01:45:54.275Z,30.07
2024-03-05T01:46:54.431Z,30.06
2024-03-05T01:47:54.410Z,29.98
2024-03-05T01:48:54.477Z,30.03
2024-03-05T01:49:54.617Z,30.03
2024-03-05T01:50:54.626Z,30.05
2024-03-05T01:51:54.727Z,30.06
2024-03-05T01:52:54.894Z,30.20
2024-03-05T01:53:54.813Z,30.28
2024-03-05T01:54:56.740Z,30.18
2024-03-05T01:55:55.066Z,30.18
2024-03-05T01:56:55.096Z,30.22
2024-03-05T01:57:55.133Z,30.31
2024-03-05T01:58:55.203Z,30.40
2024-03-05T01:59:55.298Z,30.42
2024-03-05T02:00:55.412Z,30.38
2024-03-05T02:01:55.463Z,30.34
2024-03-05T02:02:55.523Z,30.51
2024-03-05T02:03:55.574Z,30.43
2024-03-05T02:04:55.710Z,30.40
2024-03-05T02:05:55.686Z,30.47
2024-03-05T02:06:55.754Z,30.52
2024-03-05T02:07:55.976Z,30.55
2024-03-05T02:08:55.896Z,30.48
2024-03-05T02:09:55.982Z,30.51
2024-03-05T02:10:56.144Z,30.62
2024-03-05T02:11:59.514Z,30.58
2024-03-05T02:12:57.132Z,30.57
2024-03-05T02:13:56.151Z,30.54
2024-03-05T02:14:56.126Z,30.60
2024-03-05T02:15:56.115Z,30.60
2024-03-05T02:16:56.226Z,30.61
2024-03-05T02:17:56.214Z,30.68
2024-03-05T02:18:56.106Z,30.70
2024-03-05T02:19:56.226Z,30.66
2024-03-05T02:20:56.240Z,30.73
2024-03-05T02:21:56.295Z,30.70
2024-03-05T02:22:56.468Z,30.70
2024-03-05T02:23:56.466Z,30.69
2024-03-05T02:24:56.535Z,30.65
2024-03-05T02:25:56.669Z,30.68
2024-03-05T02:26:56.682Z,30.72
2024-03-05T02:27:56.737Z,30.73
2024-03-05T02:28:56.833Z,30.70
2024-03-05T02:29:56.898Z,30.73
2024-03-05T02:30:56.963Z,30.77
2024-03-05T02:31:57.090Z,30.72
2024-03-05T02:32:57.124Z,30.72
2024-03-05T02:33:57.185Z,30.71
2024-03-05T02:34:57.277Z,30.72
2024-03-05T02:35:57.285Z,30.76
2024-03-05T02:36:57.384Z,30.77
2024-03-05T02:37:57.486Z,30.81
2024-03-05T02:38:57.504Z,30.78
2024-03-05T02:39:57.561Z,30.82
2024-03-05T02:40:57.730Z,30.74
2024-03-05T02:41:57.712Z,30.80
2024-03-05T02:42:57.766Z,30.80
2024-03-05T02:43:57.894Z,30.78
2024-03-05T02:44:57.884Z,30.83
2024-03-05T02:45:57.946Z,30.82
2024-03-05T02:46:58.009Z,30.80
2024-03-05T02:47:58.104Z,30.76
2024-03-05T02:48:58.124Z,30.87
2024-03-05T02:49:58.243Z,30.79
2024-03-05T02:50:58.261Z,30.93
2024-03-05T02:51:58.362Z,30.81
2024-03-05T02:52:58.513Z,30.85
2024-03-05T02:53:58.488Z,30.91
2024-03-05T02:54:58.533Z,30.84
2024-03-05T02:55:58.752Z,30.90
2024-03-05T02:56:58.687Z,30.88
2024-03-05T02:57:58.770Z,30.90
2024-03-05T02:58:58.869Z,30.90
2024-03-05T02:59:58.915Z,30.89
2024-03-05T03:00:59.026Z,30.90
2024-03-05T03:01:59.025Z,30.90
2024-03-05T03:02:59.122Z,30.91
2024-03-05T03:03:59.196Z,31.05
2024-03-05T03:04:59.310Z,30.92
2024-03-05T03:05:59.346Z,31.01
2024-03-05T03:06:59.402Z,30.95
2024-03-05T03:07:59.549Z,30.94
2024-03-05T03:08:59.558Z,30.93
2024-03-05T03:09:59.612Z,30.93
2024-03-05T03:10:59.796Z,31.04
2024-03-05T03:11:59.851Z,30.99
2024-03-05T03:12:59.864Z,30.98
2024-03-05T03:13:59.908Z,30.99
2024-03-05T03:15:00.008Z,31.05
2024-03-05T03:16:00.039Z,31.08
2024-03-05T03:17:00.142Z,31.01
2024-03-05T03:18:00.261Z,31.05
2024-03-05T03:19:00.260Z,31.09
2024-03-05T03:20:00.382Z,31.02
2024-03-05T03:21:00.394Z,31.04
2024-03-05T03:22:00.492Z,31.05
2024-03-05T03:23:00.613Z,31.00
2024-03-05T03:24:00.628Z,31.02
2024-03-05T03:25:00.669Z,31.10
2024-03-05T03:26:00.742Z,31.06
2024-03-05T03:27:00.878Z,31.16
2024-03-05T03:28:00.883Z,31.07
2024-03-05T03:29:00.965Z,31.08
2024-03-05T03:30:01.003Z,31.08
2024-03-05T03:31:01.076Z,31.09
2024-03-05T03:32:01.151Z,31.19
2024-03-05T03:33:01.218Z,31.13
2024-03-05T03:34:01.225Z,31.16
2024-03-05T03:35:01.348Z,31.15
2024-03-05T03:36:01.350Z,31.24
2024-03-05T03:37:01.460Z,31.14
2024-03-05T03:38:01.485Z,31.24
2024-03-05T03:39:01.512Z,31.16
2024-03-05T03:40:01.589Z,31.15
2024-03-05T03:41:01.672Z,31.19
2024-03-05T03:42:01.714Z,31.13
2024-03-05T03:43:01.764Z,31.17
2024-03-05T03:44:01.800Z,31.12
2024-03-05T03:45:01.846Z,31.09
2024-03-05T03:46:01.924Z,31.09
2024-03-05T03:47:01.975Z,31.11
2024-03-05T03:48:02.075Z,31.09
2024-03-05T03:49:02.015Z,31.07
2024-03-05T03:50:02.126Z,31.09
2024-03-05T03:51:02.113Z,31.13
2024-03-05T03:52:02.119Z,31.09
2024-03-05T03:53:02.198Z,31.13
2024-03-05T03:54:02.176Z,31.11
2024-03-05T03:55:02.215Z,31.12
2024-03-05T03:56:02.253Z,31.10
2024-03-05T03:57:02.273Z,31.24
2024-03-05T03:58:02.323Z,31.13
2024-03-05T03:59:02.383Z,31.14
2024-03-05T04:00:02.393Z,31.13
2024-03-05T04:01:02.440Z,31.16
2024-03-05T04:02:02.567Z,31.10
2024-03-05T04:03:02.528Z,31.09
2024-03-05T04:04:02.557Z,31.21
2024-03-05T04:05:02.637Z,31.12
2024-03-05T04:06:02.623Z,31.14
2024-03-05T04:07:02.653Z,31.12
2024-03-05T04:08:04.872Z,31.12
2024-03-05T04:09:02.886Z,31.13
2024-03-05T04:10:02.988Z,31.28
2024-03-05T04:11:03.150Z,31.18
2024-03-05T04:12:03.085Z,31.16
2024-03-05T04:13:03.155Z,31.13
2024-03-05T04:14:04.615Z,31.12
2024-03-05T04:15:03.247Z,31.16
2024-03-05T04:16:03.274Z,31.18
2024-03-05T04:17:03.357Z,31.24
2024-03-05T04:18:03.475Z,31.18
2024-03-05T04:19:03.464Z,31.27
2024-03-05T04:20:03.575Z,31.23
2024-03-05T04:21:03.536Z,31.28
2024-03-05T04:22:03.610Z,31.21
2024-03-05T04:23:03.722Z,31.17
2024-03-05T04:24:03.687Z,31.14
2024-03-05T04:25:03.723Z,31.13
2024-03-05T04:26:03.750Z,31.19
2024-03-05T04:27:03.772Z,31.27
2024-03-05T04:28:03.796Z,31.20
2024-03-05T04:29:03.935Z,31.17
2024-03-05T04:30:03.848Z,31.18
2024-03-05T04:31:03.963Z,31.17
2024-03-05T04:32:03.972Z,31.11
2024-03-05T04:33:04.012Z,31.11
2024-03-05T04:34:03.976Z,31.10
2024-03-05T04:35:04.050Z,31.11
2024-03-05T04:36:04.023Z,31.19
2024-03-05T04:37:04.130Z,31.12
2024-03-05T04:38:04.088Z,31.05
2024-03-05T04:39:04.027Z,31.06
2024-03-05T04:40:04.057Z,31.03
2024-03-05T04:41:04.071Z,31.04
2024-03-05T04:42:04.047Z,31.02
2024-03-05T04:43:04.064Z,31.00
2024-03-05T04:44:04.074Z,31.01
2024-03-05T04:45:04.050Z,30.99
2024-03-05T04:46:04.064Z,31.18
2024-03-05T04:47:04.133Z,31.03
2024-03-05T04:48:04.125Z,31.02
2024-03-05T04:49:04.082Z,31.01
2024-03-05T04:50:04.121Z,31.01
2024-03-05T04:51:04.162Z,31.01
2024-03-05T04:52:04.098Z,31.03
2024-03-05T04:53:04.256Z,31.01
2024-03-05T04:54:11.626Z,31.05
2024-03-05T04:55:11.617Z,31.03
2024-03-05T04:56:11.685Z,31.04
2024-03-05T04:57:11.623Z,31.14
2024-03-05T04:58:11.620Z,31.14
2024-03-05T04:59:11.610Z,31.18
2024-03-05T05:00:11.605Z,31.12
2024-03-05T05:01:11.691Z,31.17
2024-03-05T05:02:11.709Z,31.16
2024-03-05T05:03:11.637Z,31.06
2024-03-05T05:04:11.614Z,31.09
2024-03-05T05:05:11.660Z,31.12
2024-03-05T05:06:11.622Z,31.20
2024-03-05T05:07:11.599Z,31.13
2024-03-05T05:08:11.633Z,31.10
2024-03-05T05:09:11.624Z,31.14
2024-03-05T05:10:11.645Z,31.12
2024-03-05T05:11:11.756Z,31.14
2024-03-05T05:12:11.623Z,31.17
2024-03-05T05:13:11.653Z,31.15
2024-03-05T05:14:11.649Z,31.20
2024-03-05T05:15:11.641Z,31.19
2024-03-05T05:16:11.636Z,31.14
2024-03-05T05:17:11.633Z,31.16
2024-03-05T05:18:11.683Z,31.21
2024-03-05T05:19:11.634Z,31.23
2024-03-05T05:20:11.730Z,31.17
2024-03-05T05:21:11.645Z,31.21
2024-03-05T05:22:11.644Z,31.18
2024-03-05T05:23:11.648Z,31.23
2024-03-05T05:24:11.654Z,31.23
2024-03-05T05:25:11.634Z,31.18
2024-03-05T05:26:11.636Z,31.15
2024-03-05T05:27:11.680Z,31.13
2024-03-05T05:28:11.670Z,31.21
2024-03-05T05:29:17.525Z,31.12
2024-03-05T05:30:14.313Z,31.19
2024-03-05T05:31:11.700Z,31.13
2024-03-05T05:32:11.647Z,31.15
2024-03-05T05:33:11.765Z,31.16
2024-03-05T05:34:11.676Z,31.18
2024-03-05T05:35:11.635Z,31.14
2024-03-05T05:36:11.660Z,31.10
2024-03-05T05:37:11.673Z,31.07
2024-03-05T05:38:11.762Z,31.10
2024-03-05T05:39:11.657Z,31.12
2024-03-05T05:40:11.725Z,31.04
2024-03-05T05:41:11.752Z,31.06
2024-03-05T05:42:11.672Z,31.13
2024-03-05T05:43:11.656Z,31.08
2024-03-05T05:44:11.689Z,31.06
2024-03-05T05:45:11.661Z,31.11
2024-03-05T05:46:11.705Z,31.08
2024-03-05T05:47:11.859Z,31.12
2024-03-05T05:48:11.803Z,31.21
2024-03-05T05:49:11.688Z,31.13
2024-03-05T05:50:11.694Z,31.26
2024-03-05T05:51:11.740Z,31.73
2024-03-05T05:52:11.669Z,32.83
2024-03-05T05:53:11.688Z,33.40
2024-03-05T05:54:11.790Z,33.14
2024-03-05T05:55:11.702Z,34.04
2024-03-05T05:56:11.653Z,34.80
2024-03-05T05:57:11.671Z,34.37
2024-03-05T05:58:11.690Z,34.64
2024-03-05T05:59:11.689Z,33.88
2024-03-05T06:00:11.700Z,34.02
2024-03-05T06:01:11.704Z,34.90
2024-03-05T06:02:11.766Z,34.52
2024-03-05T06:03:11.700Z,34.46
2024-03-05T06:04:11.715Z,34.56
2024-03-05T06:05:11.698Z,34.71
2024-03-05T06:06:11.711Z,35.22
2024-03-05T06:07:12.250Z,35.30
2024-03-05T06:08:12.289Z,35.45
2024-03-05T06:09:11.677Z,35.63
2024-03-05T06:10:11.725Z,35.52
2024-03-05T06:11:11.863Z,35.16
2024-03-05T06:12:11.708Z,35.78
2024-03-05T06:13:11.746Z,36.17
2024-03-05T06:14:11.693Z,36.49
2024-03-05T06:15:11.721Z,36.07
2024-03-05T06:16:11.727Z,35.76
2024-03-05T06:17:11.761Z,36.51
2024-03-05T06:18:11.783Z,36.74
2024-03-05T06:19:11.707Z,36.48
2024-03-05T06:20:11.805Z,36.59
2024-03-05T06:21:11.718Z,36.72
2024-03-05T06:22:13.960Z,36.67
2024-03-05T06:23:11.869Z,37.12
2024-03-05T06:24:11.741Z,36.77
2024-03-05T06:25:11.739Z,36.68
2024-03-05T06:26:11.755Z,36.95
2024-03-05T06:27:11.735Z,37.29
2024-03-05T06:28:11.720Z,37.73
2024-03-05T06:29:11.773Z,37.35
2024-03-05T06:30:11.750Z,37.31
2024-03-05T06:31:11.740Z,37.32
2024-03-05T06:32:11.781Z,37.50
2024-03-05T06:33:11.872Z,37.23
2024-03-05T06:34:11.914Z,37.62
2024-03-05T06:35:11.946Z,37.32
2024-03-05T06:36:12.020Z,37.19
2024-03-05T06:37:12.059Z,38.08
2024-03-05T06:38:12.130Z,39.40
2024-03-05T06:39:12.165Z,41.00
2024-03-05T06:40:12.257Z,42.27
2024-03-05T06:41:12.326Z,43.30
2024-03-05T06:42:12.314Z,42.55
2024-03-05T06:43:12.367Z,42.02
2024-03-05T06:44:12.387Z,41.92
2024-03-05T06:45:12.430Z,42.01
2024-03-05T06:46:12.453Z,43.47
2024-03-05T06:47:12.509Z,42.97
2024-03-05T06:48:17.365Z,43.51
2024-03-05T06:49:13.530Z,44.66
2024-03-05T06:50:12.566Z,45.23
2024-03-05T06:51:12.574Z,45.12
2024-03-05T06:52:12.560Z,45.43
2024-03-05T06:53:12.585Z,45.06
2024-03-05T06:54:12.629Z,45.16
2024-03-05T06:55:12.580Z,44.34
2024-03-05T06:56:13.267Z,43.65
2024-03-05T06:57:12.553Z,43.64
2024-03-05T06:58:12.569Z,43.32
2024-03-05T06:59:12.565Z,43.21
2024-03-05T07:00:12.565Z,43.64
2024-03-05T07:01:12.659Z,44.08
2024-03-05T07:02:12.573Z,44.68
2024-03-05T07:03:12.562Z,44.88
2024-03-05T07:04:12.561Z,45.11
2024-03-05T07:05:12.651Z,45.38
2024-03-05T07:06:12.574Z,45.65
2024-03-05T07:07:12.591Z,45.62
2024-03-05T07:08:12.547Z,45.79
2024-03-05T07:09:12.684Z,45.93
2024-03-05T07:10:12.601Z,46.11
2024-03-05T07:11:12.770Z,46.48
2024-03-05T07:12:12.611Z,47.05
2024-03-05T07:13:12.711Z,47.13
2024-03-05T07:14:12.872Z,47.35
2024-03-05T07:15:12.844Z,47.98
2024-03-05T07:16:12.849Z,48.18
2024-03-05T07:17:12.920Z,48.50
2024-03-05T07:18:13.033Z,48.46
2024-03-05T07:19:12.984Z,48.46
2024-03-05T07:20:13.063Z,48.92
2024-03-05T07:21:13.786Z,48.84
2024-03-05T07:22:13.139Z,49.10
2024-03-05T07:23:13.151Z,48.80
2024-03-05T07:24:13.193Z,48.89
2024-03-05T07:25:13.219Z,49.56
2024-03-05T07:26:13.319Z,49.81
2024-03-05T07:27:13.330Z,49.82
2024-03-05T07:28:13.402Z,49.94
2024-03-05T07:29:13.469Z,50.41
2024-03-05T07:30:13.443Z,50.75
2024-03-05T07:31:13.535Z,50.87
2024-03-05T07:32:13.611Z,50.88
2024-03-05T07:33:13.661Z,50.80
2024-03-05T07:34:13.701Z,50.72
2024-03-05T07:35:13.740Z,50.70
2024-03-05T07:36:13.858Z,50.66
2024-03-05T07:37:13.845Z,50.92
2024-03-05T07:38:13.900Z,51.15
2024-03-05T07:39:14.033Z,50.98
2024-03-05T07:40:15.948Z,51.17
2024-03-05T07:41:22.513Z,51.27
2024-03-05T07:42:15.076Z,51.26
2024-03-05T07:43:14.106Z,50.98
2024-03-05T07:44:14.064Z,51.09
2024-03-05T07:45:14.120Z,51.31
2024-03-05T07:46:14.117Z,51.32
2024-03-05T07:47:14.066Z,50.90
2024-03-05T07:48:14.145Z,50.76
2024-03-05T07:49:14.072Z,50.42
2024-03-05T07:50:14.081Z,50.62
2024-03-05T07:51:19.559Z,50.87
2024-03-05T07:52:15.152Z,50.82
2024-03-05T07:53:14.164Z,50.86
2024-03-05T07:54:14.672Z,51.36
2024-03-05T07:55:14.211Z,51.48
2024-03-05T07:56:14.218Z,51.52
2024-03-05T07:57:14.142Z,51.56
2024-03-05T07:58:14.393Z,52.05
2024-03-05T07:59:14.153Z,52.06
2024-03-05T08:00:14.153Z,52.38
2024-03-05T08:01:14.296Z,52.39
2024-03-05T08:02:14.309Z,52.27
2024-03-05T08:03:14.322Z,52.11
2024-03-05T08:04:14.407Z,51.68
2024-03-05T08:05:14.433Z,51.78
2024-03-05T08:06:14.565Z,52.25
2024-03-05T08:07:14.585Z,52.26
2024-03-05T08:08:14.647Z,52.66
2024-03-05T08:09:14.700Z,52.95
2024-03-05T08:10:14.796Z,53.28
2024-03-05T08:11:14.952Z,53.41
2024-03-05T08:12:14.900Z,53.57
2024-03-05T08:13:14.951Z,53.62
2024-03-05T08:14:15.007Z,53.79
2024-03-05T08:15:15.031Z,53.68
2024-03-05T08:16:15.045Z,53.49
2024-03-05T08:17:15.062Z,53.25
2024-03-05T08:18:15.203Z,53.03
2024-03-05T08:19:15.066Z,53.21
2024-03-05T08:20:15.143Z,53.11
2024-03-05T08:21:15.110Z,53.36
2024-03-05T08:22:15.092Z,53.41
2024-03-05T08:23:15.129Z,53.36
2024-03-05T08:24:15.141Z,53.77
2024-03-05T08:25:15.113Z,53.72
2024-03-05T08:26:15.225Z,53.83
2024-03-05T08:27:15.138Z,53.68
2024-03-05T08:28:15.139Z,53.73
2024-03-05T08:29:15.151Z,53.69
2024-03-05T08:30:15.169Z,53.55
2024-03-05T08:31:15.173Z,53.27
2024-03-05T08:32:15.181Z,53.19
2024-03-05T08:33:15.223Z,53.02
2024-03-05T08:34:15.192Z,53.11
2024-03-05T08:35:15.207Z,52.85
2024-03-05T08:36:15.184Z,52.23
2024-03-05T08:37:15.225Z,51.81
2024-03-05T08:38:15.262Z,51.97
2024-03-05T08:39:15.231Z,52.22
2024-03-05T08:40:15.296Z,52.48
2024-03-05T08:41:15.354Z,52.66
2024-03-05T08:42:15.342Z,52.64
2024-03-05T08:43:15.480Z,52.69
2024-03-05T08:44:17.043Z,52.63
2024-03-05T08:45:15.510Z,52.45
2024-03-05T08:46:15.572Z,52.19
2024-03-05T08:47:15.629Z,52.11
2024-03-05T08:48:15.841Z,52.05
2024-03-05T08:49:15.799Z,52.30
2024-03-05T08:50:15.849Z,52.39
2024-03-05T08:51:15.910Z,52.43
2024-03-05T08:52:15.957Z,52.45
2024-03-05T08:53:16.028Z,52.63
2024-03-05T08:54:17.868Z,52.81
2024-03-05T08:55:16.193Z,52.64
2024-03-05T08:56:16.247Z,52.74
2024-03-05T08:57:16.330Z,52.91
2024-03-05T08:58:16.378Z,52.61
2024-03-05T08:59:16.463Z,52.48
2024-03-05T09:00:27.144Z,52.39
2024-03-05T09:01:17.658Z,52.50
2024-03-05T09:02:16.613Z,52.42
2024-03-05T09:03:16.549Z,52.44
2024-03-05T09:04:16.557Z,52.48
2024-03-05T09:05:16.550Z,52.80
2024-03-05T09:06:16.575Z,52.76
2024-03-05T09:07:16.535Z,52.86
2024-03-05T09:08:16.613Z,53.17
2024-03-05T09:09:16.557Z,53.12
2024-03-05T09:10:16.669Z,53.18
2024-03-05T09:11:16.803Z,53.18
2024-03-05T09:12:16.770Z,53.23
2024-03-05T09:13:16.851Z,53.57
2024-03-05T09:14:16.883Z,53.57
2024-03-05T09:15:17.212Z,53.58
2024-03-05T09:16:17.100Z,53.67
2024-03-05T09:17:17.109Z,53.85
2024-03-05T09:18:17.192Z,53.71
2024-03-05T09:19:17.252Z,53.85
2024-03-05T09:20:17.402Z,53.95
2024-03-05T09:21:17.353Z,53.98
2024-03-05T09:22:17.546Z,53.97
2024-03-05T09:23:17.820Z,53.86
2024-03-05T09:24:17.498Z,53.75
2024-03-05T09:25:17.566Z,53.97
2024-03-05T09:26:17.599Z,53.92
2024-03-05T09:27:17.668Z,53.99
2024-03-05T09:28:17.766Z,53.97
2024-03-05T09:29:17.814Z,54.01
2024-03-05T09:30:17.816Z,54.07
2024-03-05T09:31:17.938Z,54.49
2024-03-05T09:32:17.920Z,54.40
2024-03-05T09:33:17.985Z,54.31
2024-03-05T09:34:18.082Z,54.33
2024-03-05T09:35:18.114Z,54.25
2024-03-05T09:36:18.106Z,54.50
2024-03-05T09:37:18.202Z,54.31
2024-03-05T09:38:18.275Z,54.42
2024-03-05T09:39:18.278Z,54.09
2024-03-05T09:40:19.562Z,54.03
2024-03-05T09:41:18.396Z,54.20
2024-03-05T09:42:18.408Z,54.08
2024-03-05T09:43:18.501Z,54.17
2024-03-05T09:44:18.553Z,54.03
2024-03-05T09:45:19.564Z,54.57
2024-03-05T09:46:18.741Z,54.29
2024-03-05T09:47:18.715Z,53.53
2024-03-05T09:48:18.793Z,53.09
2024-03-05T09:49:22.889Z,52.73
2024-03-05T09:50:19.916Z,52.62
2024-03-05T09:51:18.782Z,52.54
2024-03-05T09:52:18.786Z,52.63
2024-03-05T09:53:18.796Z,52.78
2024-03-05T09:54:18.790Z,53.08
2024-03-05T09:55:19.334Z,53.31
2024-03-05T09:56:18.815Z,53.49
2024-03-05T09:57:18.843Z,53.69
2024-03-05T09:58:18.854Z,53.99
2024-03-05T09:59:18.802Z,54.02
2024-03-05T10:00:19.986Z,53.78
2024-03-05T10:01:18.923Z,53.83
2024-03-05T10:02:18.840Z,53.73
2024-03-05T10:03:18.829Z,53.58
2024-03-05T10:04:18.931Z,53.80
2024-03-05T10:05:18.903Z,53.93
2024-03-05T10:06:18.861Z,54.19
2024-03-05T10:07:18.870Z,54.47
2024-03-05T10:08:18.875Z,54.46
2024-03-05T10:09:20.479Z,54.46
2024-03-05T10:10:18.912Z,54.61
2024-03-05T10:11:19.045Z,54.60
2024-03-05T10:12:18.901Z,54.44
2024-03-05T10:13:18.972Z,54.42
2024-03-05T10:14:18.867Z,54.44
2024-03-05T10:15:19.057Z,54.31
2024-03-05T10:16:19.143Z,54.41
2024-03-05T10:17:18.885Z,54.57
2024-03-05T10:18:18.961Z,54.83
2024-03-05T10:19:18.966Z,54.93
2024-03-05T10:20:18.885Z,54.94
2024-03-05T10:21:18.920Z,55.09
2024-03-05T10:22:18.909Z,55.23
2024-03-05T10:23:18.910Z,55.19
2024-03-05T10:24:18.915Z,55.26
2024-03-05T10:25:19.413Z,55.15
2024-03-05T10:26:18.914Z,54.92
2024-03-05T10:27:18.870Z,54.81
2024-03-05T10:28:18.984Z,54.75
2024-03-05T10:29:18.913Z,54.92
2024-03-05T10:30:18.885Z,55.15
2024-03-05T10:31:18.933Z,55.38
2024-03-05T10:32:18.890Z,55.31
2024-03-05T10:33:18.928Z,55.39
2024-03-05T10:34:18.972Z,55.53
2024-03-05T10:35:18.922Z,55.47
2024-03-05T10:36:18.917Z,55.54
2024-03-05T10:37:19.066Z,55.47
2024-03-05T10:38:18.942Z,55.25
2024-03-05T10:39:18.974Z,55.24
2024-03-05T10:40:19.000Z,55.40
2024-03-05T10:41:18.910Z,55.47
2024-03-05T10:42:18.939Z,55.35
2024-03-05T10:43:18.994Z,55.21
2024-03-05T10:44:18.949Z,55.15
2024-03-05T10:45:18.943Z,54.59
2024-03-05T10:46:18.938Z,54.58
2024-03-05T10:47:18.945Z,53.43
2024-03-05T10:48:18.965Z,53.89
2024-03-05T10:49:19.066Z,53.26
2024-03-05T10:50:18.920Z,53.36
2024-03-05T10:51:18.936Z,53.25
2024-03-05T10:52:19.147Z,52.87
2024-03-05T10:53:18.952Z,53.09
2024-03-05T10:54:19.086Z,53.19
2024-03-05T10:55:18.981Z,53.40
2024-03-05T10:56:19.045Z,53.57
2024-03-05T10:57:18.955Z,53.83
2024-03-05T10:58:19.070Z,54.11
2024-03-05T10:59:18.962Z,54.23
2024-03-05T11:00:18.946Z,54.26
2024-03-05T11:01:19.049Z,54.30
2024-03-05T11:02:18.998Z,54.30
2024-03-05T11:03:19.311Z,54.30
2024-03-05T11:04:19.006Z,54.23
2024-03-05T11:05:18.974Z,54.14
2024-03-05T11:06:18.980Z,54.39
2024-03-05T11:07:20.598Z,54.51
2024-03-05T11:08:19.677Z,54.52
2024-03-05T11:09:18.985Z,54.70
2024-03-05T11:10:18.999Z,54.68
2024-03-05T11:11:19.081Z,54.94
2024-03-05T11:12:18.951Z,55.03
2024-03-05T11:13:18.963Z,55.07
2024-03-05T11:14:19.018Z,55.02
2024-03-05T11:15:18.999Z,54.99
2024-03-05T11:16:18.982Z,54.91
2024-03-05T11:17:19.094Z,54.80
2024-03-05T11:18:18.982Z,54.67
2024-03-05T11:19:19.078Z,54.86
2024-03-05T11:20:19.001Z,54.85
2024-03-05T11:21:19.041Z,54.98
2024-03-05T11:22:19.004Z,54.97
2024-03-05T11:23:18.992Z,55.19
2024-03-05T11:24:18.980Z,55.40
2024-03-05T11:25:18.970Z,55.41
2024-03-05T11:26:18.985Z,55.45
2024-03-05T11:27:18.973Z,55.42
2024-03-05T11:28:19.009Z,55.38
2024-03-05T11:29:19.177Z,55.23
2024-03-05T11:30:18.958Z,55.12
2024-03-05T11:31:20.720Z,55.26
2024-03-05T11:32:18.983Z,55.26
2024-03-05T11:33:19.020Z,55.38
2024-03-05T11:34:19.203Z,55.45
2024-03-05T11:35:19.007Z,55.60
2024-03-05T11:36:19.005Z,55.55
2024-03-05T11:37:18.988Z,55.57
2024-03-05T11:38:19.010Z,55.40
2024-03-05T11:39:19.268Z,55.07
2024-03-05T11:40:19.048Z,54.87
2024-03-05T11:41:19.001Z,54.70
2024-03-05T11:42:19.014Z,54.41
2024-03-05T11:43:19.035Z,54.00
2024-03-05T11:44:18.984Z,53.62
2024-03-05T11:45:19.030Z,53.64
2024-03-05T11:46:19.024Z,53.80
2024-03-05T11:47:19.075Z,54.05
2024-03-05T11:48:19.029Z,54.20
2024-03-05T11:49:19.044Z,54.27
2024-03-05T11:50:19.045Z,54.59
2024-03-05T11:51:19.072Z,54.60
2024-03-05T11:52:19.025Z,55.01
2024-03-05T11:53:19.112Z,55.02
2024-03-05T11:54:21.793Z,54.79
2024-03-05T11:55:19.068Z,54.63
2024-03-05T11:56:19.168Z,54.51
2024-03-05T11:57:19.032Z,54.38
2024-03-05T11:58:19.077Z,54.53
2024-03-05T11:59:19.064Z,54.68
2024-03-05T12:00:19.097Z,55.04
2024-03-05T12:01:19.063Z,54.98
2024-03-05T12:02:19.301Z,55.09
2024-03-05T12:03:19.056Z,55.13
2024-03-05T12:04:19.169Z,55.33
2024-03-05T12:05:19.284Z,55.21
2024-03-05T12:06:19.274Z,55.20
2024-03-05T12:07:19.363Z,55.18
2024-03-05T12:08:19.430Z,55.07
2024-03-05T12:09:19.593Z,54.91
2024-03-05T12:10:19.654Z,54.75
2024-03-05T12:11:19.725Z,54.57
2024-03-05T12:12:19.723Z,54.38
2024-03-05T12:13:19.884Z,54.07
2024-03-05T12:14:19.836Z,53.78
2024-03-05T12:15:19.896Z,53.44
2024-03-05T12:16:20.040Z,53.27
2024-03-05T12:17:20.196Z,52.89
2024-03-05T12:18:20.078Z,52.89
2024-03-05T12:19:20.204Z,52.51
2024-03-05T12:20:20.245Z,52.42
2024-03-05T12:21:21.492Z,52.26
2024-03-05T12:22:20.427Z,52.50
2024-03-05T12:23:40.448Z,52.69
2024-03-05T12:24:21.503Z,53.00
2024-03-05T12:25:20.462Z,53.30
2024-03-05T12:26:20.478Z,53.60
2024-03-05T12:27:20.435Z,53.74
2024-03-05T12:28:20.484Z,53.72
2024-03-05T12:29:20.424Z,53.76
2024-03-05T12:30:22.879Z,53.90
2024-03-05T12:31:20.488Z,53.70
2024-03-05T12:32:20.485Z,53.53
2024-03-05T12:33:20.449Z,53.33
2024-03-05T12:34:20.491Z,53.36
2024-03-05T12:35:20.501Z,53.37
2024-03-05T12:36:20.430Z,53.41
2024-03-05T12:37:20.779Z,53.52
2024-03-05T12:38:20.478Z,53.64
2024-03-05T12:39:20.457Z,53.70
2024-03-05T12:40:20.448Z,53.73
2024-03-05T12:41:20.468Z,53.67
2024-03-05T12:42:20.440Z,53.61
2024-03-05T12:43:20.454Z,53.49
2024-03-05T12:44:20.426Z,53.42
2024-03-05T12:45:20.443Z,53.38
2024-03-05T12:46:20.655Z,53.34
2024-03-05T12:47:20.509Z,53.20
2024-03-05T12:48:20.583Z,53.20
2024-03-05T12:49:20.514Z,53.10
2024-03-05T12:50:20.497Z,52.67
2024-03-05T12:51:20.479Z,51.53
2024-03-05T12:52:20.623Z,51.92
2024-03-05T12:53:20.450Z,52.41